createdAt,value
2022-11-09T00:01:22.541Z,5.10
2022-11-09T00:04:03.982Z,4.30
2022-11-09T00:06:32.623Z,4.70
2022-11-09T00:09:07.155Z,4.13
2022-11-09T00:11:37.754Z,4.03
2022-11-09T00:14:07.044Z,5.20
2022-11-09T00:16:35.151Z,6.07
2022-11-09T00:19:03.079Z,6.53
2022-11-09T00:21:30.662Z,7.00
2022-11-09T00:23:58.463Z,7.00
2022-11-09T00:26:26.863Z,7.28
2022-11-09T00:28:54.559Z,9.25
2022-11-09T00:31:26.956Z,10.68
2022-11-09T00:33:57.149Z,11.13
2022-11-09T00:36:26.416Z,8.32
2022-11-09T00:38:56.846Z,7.97
2022-11-09T00:41:26.592Z,6.80
2022-11-09T00:43:56.306Z,5.68
2022-11-09T00:46:24.876Z,5.28
2022-11-09T00:48:56.009Z,5.22
2022-11-09T00:51:23.969Z,5.32
2022-11-09T00:53:54.751Z,6.40
2022-11-09T00:56:25.425Z,6.05
2022-11-09T00:58:56.064Z,6.25
2022-11-09T01:01:25.418Z,5.72
2022-11-09T01:03:53.164Z,5.57
2022-11-09T01:06:24.517Z,5.03
2022-11-09T01:08:53.715Z,4.40
2022-11-09T01:11:22.862Z,4.18
2022-11-09T01:13:55.553Z,4.75
2022-11-09T01:16:24.613Z,4.30
2022-11-09T01:18:57.041Z,4.80
2022-11-09T01:21:28.166Z,5.15
2022-11-09T01:23:58.568Z,4.60
2022-11-09T01:26:28.969Z,4.80
2022-11-09T01:28:56.790Z,5.20
2022-11-09T01:31:26.086Z,5.20
2022-11-09T01:33:54.125Z,5.20
2022-11-09T01:36:23.537Z,4.78
2022-11-09T01:38:51.689Z,4.40
2022-11-09T01:41:28.706Z,4.93
2022-11-09T01:44:23.172Z,4.25
2022-11-09T01:46:57.278Z,4.40
2022-11-09T01:49:38.379Z,4.35
2022-11-09T01:52:12.534Z,4.40
2022-11-09T01:54:49.364Z,4.93
2022-11-09T01:57:26.537Z,6.07
2022-11-09T02:00:02.078Z,5.80
2022-11-09T02:02:46.287Z,4.90
2022-11-09T02:05:21.440Z,4.93
2022-11-09T02:07:52.545Z,4.32
2022-11-09T02:10:39.225Z,4.00
2022-11-09T02:13:10.113Z,4.72
2022-11-09T02:15:45.457Z,4.57
2022-11-09T02:18:14.788Z,4.40
2022-11-09T02:20:49.044Z,3.88
2022-11-09T02:23:17.150Z,4.88
2022-11-09T02:25:50.398Z,4.28
2022-11-09T02:28:18.808Z,4.20
2022-11-09T02:30:52.716Z,4.60
2022-11-09T02:33:20.829Z,4.90
2022-11-09T02:35:48.940Z,5.00
2022-11-09T02:38:16.602Z,4.75
2022-11-09T02:40:48.333Z,5.03
2022-11-09T02:43:18.466Z,5.00
2022-11-09T02:45:46.739Z,4.95
2022-11-09T02:48:15.661Z,5.05
2022-11-09T02:50:43.345Z,4.50
2022-11-09T02:53:11.198Z,5.18
2022-11-09T02:55:43.033Z,4.90
2022-11-09T02:58:10.910Z,4.40
2022-11-09T03:00:40.605Z,4.20
2022-11-09T03:03:08.559Z,5.03
2022-11-09T03:05:36.290Z,4.30
2022-11-09T03:08:04.060Z,4.70
2022-11-09T03:10:35.541Z,4.80
2022-11-09T03:13:03.553Z,5.78
2022-11-09T03:15:31.308Z,6.68
2022-11-09T03:17:58.941Z,6.85
2022-11-09T03:20:26.741Z,6.72
2022-11-09T03:22:58.276Z,6.68
2022-11-09T03:25:27.328Z,5.78
2022-11-09T03:28:00.521Z,5.90
2022-11-09T03:30:28.521Z,5.65
2022-11-09T03:33:01.849Z,6.13
2022-11-09T03:35:29.794Z,6.60
2022-11-09T03:37:57.799Z,8.38
2022-11-09T03:40:26.958Z,7.68
2022-11-09T03:42:54.628Z,7.60
2022-11-09T03:45:22.373Z,7.07
2022-11-09T03:47:50.326Z,7.40
2022-11-09T03:50:18.169Z,7.07
2022-11-09T03:52:46.844Z,6.88
2022-11-09T03:55:14.987Z,6.78
2022-11-09T03:57:44.790Z,6.55
2022-11-09T04:00:14.733Z,7.03
2022-11-09T04:02:42.336Z,7.50
2022-11-09T04:05:10.793Z,7.70
2022-11-09T04:07:38.886Z,7.30
2022-11-09T04:10:07.727Z,7.38
2022-11-09T04:12:35.355Z,6.82
2022-11-09T04:15:03.685Z,6.05
2022-11-09T04:17:33.371Z,6.68
2022-11-09T04:20:02.072Z,6.30
2022-11-09T04:22:29.890Z,6.13
2022-11-09T04:24:57.497Z,6.15
2022-11-09T04:27:25.412Z,6.53
2022-11-09T04:29:53.087Z,6.35
2022-11-09T04:32:21.024Z,6.18
2022-11-09T04:34:48.806Z,5.95
2022-11-09T04:37:16.582Z,5.63
2022-11-09T04:39:44.360Z,5.88
2022-11-09T04:42:12.092Z,5.70
2022-11-09T04:44:40.213Z,6.03
2022-11-09T04:47:08.170Z,5.75
2022-11-09T04:49:36.082Z,6.32
2022-11-09T04:52:05.608Z,7.38
2022-11-09T04:54:34.025Z,6.78
2022-11-09T04:57:01.791Z,6.10
2022-11-09T04:59:29.439Z,6.65
2022-11-09T05:01:57.060Z,6.65
2022-11-09T05:04:24.706Z,6.50
2022-11-09T05:06:52.401Z,6.90
2022-11-09T05:09:20.242Z,5.97
2022-11-09T05:11:48.276Z,6.35
2022-11-09T05:14:15.917Z,6.07
2022-11-09T05:16:43.609Z,6.22
2022-11-09T05:19:13.680Z,6.10
2022-11-09T05:21:41.632Z,6.60
2022-11-09T05:24:09.401Z,7.35
2022-11-09T05:26:40.118Z,7.22
2022-11-09T05:29:10.474Z,7.43
2022-11-09T05:31:40.410Z,8.07
2022-11-09T05:34:12.509Z,7.30
2022-11-09T05:36:40.306Z,8.48
2022-11-09T05:39:08.511Z,8.60
2022-11-09T05:41:36.341Z,10.15
2022-11-09T05:44:05.864Z,10.32
2022-11-09T05:46:34.379Z,10.07
2022-11-09T05:49:02.126Z,9.85
2022-11-09T05:51:29.761Z,9.30
2022-11-09T05:53:58.541Z,9.15
2022-11-09T05:56:26.295Z,8.65
2022-11-09T05:58:54.127Z,8.88
2022-11-09T06:01:21.736Z,8.40
2022-11-09T06:03:49.550Z,8.63
2022-11-09T06:06:18.033Z,8.18
2022-11-09T06:08:45.830Z,8.13
2022-11-09T06:11:18.555Z,8.10
2022-11-09T06:13:50.802Z,7.30
2022-11-09T06:16:18.700Z,8.75
2022-11-09T06:18:46.409Z,9.18
2022-11-09T06:21:14.082Z,8.95
2022-11-09T06:23:41.857Z,8.27
2022-11-09T06:26:11.421Z,8.82
2022-11-09T06:28:40.703Z,9.48
2022-11-09T06:31:15.744Z,10.90
2022-11-09T06:33:46.490Z,13.27
2022-11-09T06:36:16.029Z,11.85
2022-11-09T06:38:43.735Z,11.68
2022-11-09T06:41:11.405Z,12.13
2022-11-09T06:43:39.165Z,10.45
2022-11-09T06:46:07.315Z,11.05
2022-11-09T06:48:34.947Z,10.20
2022-11-09T06:51:04.242Z,9.65
2022-11-09T06:53:35.464Z,8.85
2022-11-09T06:56:06.965Z,7.78
2022-11-09T06:58:35.349Z,7.22
2022-11-09T07:01:12.127Z,7.30
2022-11-09T07:06:09.794Z,7.28
2022-11-09T07:08:39.450Z,8.10
2022-11-09T07:11:11.275Z,8.73
2022-11-09T07:13:40.554Z,8.75
2022-11-09T07:16:12.992Z,8.88
2022-11-09T07:18:42.169Z,8.90
2022-11-09T07:21:14.455Z,8.85
2022-11-09T07:23:42.914Z,8.27
2022-11-09T07:26:10.826Z,8.32
2022-11-09T07:28:38.634Z,9.77
2022-11-09T07:31:06.549Z,9.70
2022-11-09T07:33:34.613Z,10.05
2022-11-09T07:36:04.636Z,9.63
2022-11-09T07:38:32.271Z,9.38
2022-11-09T07:41:01.646Z,9.80
2022-11-09T07:43:30.386Z,9.52
2022-11-09T07:46:03.926Z,9.57
2022-11-09T07:48:31.757Z,8.00
2022-11-09T07:51:01.745Z,9.02
2022-11-09T07:53:29.799Z,9.23
2022-11-09T07:55:59.726Z,9.15
2022-11-09T07:58:28.160Z,8.45
2022-11-09T08:00:56.345Z,7.68
2022-11-09T08:03:25.657Z,9.68
2022-11-09T08:05:53.443Z,8.40
2022-11-09T08:08:21.195Z,9.43
2022-11-09T08:10:52.545Z,9.38
2022-11-09T08:13:22.095Z,9.77
2022-11-09T08:15:50.099Z,11.30
2022-11-09T08:18:22.860Z,10.63
2022-11-09T08:20:51.617Z,11.15
2022-11-09T08:23:21.890Z,11.18
2022-11-09T08:25:50.683Z,10.85
2022-11-09T08:28:19.358Z,10.57
2022-11-09T08:30:56.921Z,11.05
2022-11-09T08:35:53.447Z,11.15
2022-11-09T08:38:22.592Z,9.88
2022-11-09T08:40:50.898Z,10.43
2022-11-09T08:43:18.921Z,10.05
2022-11-09T08:45:47.619Z,9.43
2022-11-09T08:48:17.263Z,9.32
2022-11-09T08:50:45.162Z,9.50
2022-11-09T08:53:13.165Z,7.85
2022-11-09T08:55:47.016Z,7.55
2022-11-09T08:59:59.491Z,6.13
2022-11-09T09:02:27.310Z,5.65
2022-11-09T09:04:56.263Z,6.07
2022-11-09T09:07:24.289Z,8.75
2022-11-09T09:09:52.545Z,7.78
2022-11-09T09:12:20.145Z,6.10
2022-11-09T09:14:48.243Z,5.45
2022-11-09T09:17:16.091Z,5.05
2022-11-09T09:19:48.761Z,5.07
2022-11-09T09:22:18.399Z,6.40
2022-11-09T09:24:46.200Z,8.48
2022-11-09T09:27:14.688Z,8.77
2022-11-09T09:29:42.331Z,4.78
2022-11-09T09:32:10.015Z,4.82
2022-11-09T09:34:37.558Z,4.00
2022-11-09T09:37:05.201Z,3.75
2022-11-09T09:39:32.902Z,4.13
2022-11-09T09:42:05.027Z,3.65
2022-11-09T09:44:37.057Z,3.47
2022-11-09T09:47:13.479Z,4.40
2022-11-09T09:49:58.338Z,3.85
2022-11-09T09:52:50.606Z,3.58
2022-11-09T09:55:39.285Z,3.70
2022-11-09T09:58:29.098Z,3.80
2022-11-09T10:01:06.432Z,4.70
2022-11-09T10:03:34.416Z,4.40
2022-11-09T10:06:27.766Z,4.53
2022-11-09T10:09:14.222Z,3.70
2022-11-09T10:12:00.939Z,3.90
2022-11-09T10:14:51.521Z,4.65
2022-11-09T10:17:33.866Z,4.47
2022-11-09T10:20:19.793Z,4.22
2022-11-09T10:22:50.362Z,4.25
2022-11-09T10:25:43.298Z,3.15
2022-11-09T10:28:17.106Z,3.03
2022-11-09T10:30:45.517Z,3.25
2022-11-09T10:33:21.523Z,3.15
2022-11-09T10:35:57.484Z,3.60
2022-11-09T10:38:33.710Z,3.50
2022-11-09T10:41:28.845Z,4.40
2022-11-09T10:44:19.898Z,4.20
2022-11-09T10:47:16.365Z,4.60
2022-11-09T10:50:22.239Z,5.53
2022-11-09T10:53:22.201Z,5.18
2022-11-09T10:56:20.289Z,4.88
2022-11-09T10:59:48.444Z,3.95
2022-11-09T11:02:44.046Z,4.18
2022-11-09T11:05:31.375Z,4.75
2022-11-09T11:08:29.487Z,4.63
2022-11-09T11:11:35.153Z,6.40
2022-11-09T11:14:35.714Z,6.95
2022-11-09T11:17:24.771Z,8.30
2022-11-09T11:20:33.303Z,8.02
2022-11-09T11:23:25.395Z,7.90
2022-11-09T11:26:25.991Z,7.75
2022-11-09T11:29:15.528Z,8.20
2022-11-09T11:32:01.942Z,7.68
2022-11-09T11:35:04.726Z,7.25
2022-11-09T11:38:15.176Z,7.32
2022-11-09T11:41:19.457Z,7.82
2022-11-09T11:44:41.537Z,6.78
2022-11-09T11:47:37.535Z,7.47
2022-11-09T11:50:36.407Z,7.63
2022-11-09T11:54:10.839Z,6.82
2022-11-09T11:57:20.154Z,5.78
2022-11-09T12:00:19.178Z,6.28
2022-11-09T12:03:44.130Z,6.07
2022-11-09T12:06:39.640Z,5.75
2022-11-09T12:09:40.243Z,5.22
2022-11-09T12:12:47.598Z,5.40
2022-11-09T12:16:03.642Z,6.22
2022-11-09T12:18:50.246Z,5.10
2022-11-09T12:21:45.601Z,4.85
2022-11-09T12:24:50.014Z,4.85
2022-11-09T12:27:45.658Z,4.15
2022-11-09T12:30:53.458Z,6.07
2022-11-09T12:33:43.880Z,5.80
2022-11-09T12:36:52.931Z,7.35
2022-11-09T12:39:45.856Z,7.80
2022-11-09T12:42:43.448Z,8.20
2022-11-09T12:45:34.555Z,12.70
2022-11-09T12:48:30.734Z,44.20
2022-11-09T12:51:18.263Z,52.78
2022-11-09T12:54:12.737Z,52.55
2022-11-09T12:57:04.809Z,49.92
2022-11-09T12:59:57.108Z,41.00
2022-11-09T13:02:55.595Z,27.75
2022-11-09T13:05:43.314Z,21.77
2022-11-09T13:11:24.042Z,17.40
2022-11-09T13:14:22.259Z,14.75
2022-11-09T13:17:28.724Z,10.32
2022-11-09T13:20:53.389Z,7.30
2022-11-09T13:26:46.744Z,15.68
2022-11-09T13:29:41.831Z,37.03
2022-11-09T13:32:33.712Z,40.90
2022-11-09T13:35:42.221Z,35.78
2022-11-09T13:38:32.497Z,32.60
2022-11-09T13:41:32.073Z,30.88
2022-11-09T13:44:38.832Z,30.27
2022-11-09T13:47:35.305Z,30.70
2022-11-09T13:50:27.332Z,20.85
2022-11-09T13:53:53.097Z,16.15
2022-11-09T13:56:41.281Z,14.68
2022-11-09T13:59:32.741Z,10.77
2022-11-09T14:02:24.786Z,8.02
2022-11-09T14:05:30.228Z,7.97
2022-11-09T14:08:40.314Z,6.00
2022-11-09T14:11:36.645Z,5.07
2022-11-09T14:15:00.234Z,5.30
2022-11-09T14:18:19.817Z,6.55
2022-11-09T14:21:21.358Z,6.65
2022-11-09T14:24:22.474Z,8.25
2022-11-09T14:27:10.010Z,9.07
2022-11-09T14:30:02.618Z,8.80
2022-11-09T14:32:51.494Z,8.20
2022-11-09T14:35:40.625Z,8.38
2022-11-09T14:38:47.912Z,8.88
2022-11-09T14:41:35.238Z,6.30
2022-11-09T14:44:28.902Z,6.45
2022-11-09T14:47:18.931Z,7.18
2022-11-09T14:50:12.977Z,8.30
2022-11-09T14:53:01.432Z,8.32
2022-11-09T14:55:47.839Z,8.27
2022-11-09T14:58:39.750Z,7.70
2022-11-09T15:01:27.445Z,5.95
2022-11-09T15:04:21.986Z,6.25
2022-11-09T15:07:19.238Z,5.45
2022-11-09T15:10:20.512Z,4.78
2022-11-09T15:13:07.040Z,5.40
2022-11-09T15:15:55.120Z,3.67
2022-11-09T15:18:46.847Z,3.80
2022-11-09T15:21:34.659Z,4.30
2022-11-09T15:24:23.188Z,4.63
2022-11-09T15:27:36.047Z,4.30
2022-11-09T15:30:36.166Z,3.97
2022-11-09T15:33:39.895Z,4.25
2022-11-09T15:36:31.584Z,5.00
2022-11-09T15:39:22.898Z,5.80
2022-11-09T15:42:14.101Z,6.30
2022-11-09T15:45:00.389Z,7.53
2022-11-09T15:47:56.062Z,6.47
2022-11-09T15:50:42.465Z,5.40
2022-11-09T15:53:28.462Z,4.40
2022-11-09T15:56:23.587Z,3.58
2022-11-09T15:59:18.436Z,4.10
2022-11-09T16:02:05.017Z,3.90
2022-11-09T16:04:51.212Z,4.50
2022-11-09T16:07:37.250Z,4.03
2022-11-09T16:10:23.635Z,3.20
2022-11-09T16:13:10.868Z,2.35
2022-11-09T16:16:05.725Z,1.90
2022-11-09T16:18:52.046Z,1.95
2022-11-09T16:21:38.211Z,1.52
2022-11-09T16:24:25.060Z,2.28
2022-11-09T16:27:17.219Z,2.58
2022-11-09T16:30:17.789Z,2.20
2022-11-09T16:33:04.453Z,2.20
2022-11-09T16:35:50.572Z,2.13
2022-11-09T16:38:42.243Z,2.50
2022-11-09T16:41:30.837Z,3.40
2022-11-09T16:44:20.575Z,2.80
2022-11-09T16:47:12.686Z,2.72
2022-11-09T16:49:58.993Z,2.25
2022-11-09T16:52:46.042Z,2.10
2022-11-09T16:55:32.447Z,1.95
2022-11-09T16:58:19.220Z,2.13
2022-11-09T17:01:12.004Z,2.13
2022-11-09T17:03:59.348Z,2.25
2022-11-09T17:06:45.484Z,2.65
2022-11-09T17:09:35.484Z,2.60
2022-11-09T17:12:21.686Z,2.17
2022-11-09T17:15:08.311Z,2.67
2022-11-09T17:17:55.254Z,2.45
2022-11-09T17:20:46.846Z,2.67
2022-11-09T17:23:34.043Z,2.30
2022-11-09T17:26:22.029Z,1.95
2022-11-09T17:29:07.999Z,2.45
2022-11-09T17:31:56.674Z,3.63
2022-11-09T17:34:43.127Z,5.50
2022-11-09T17:37:29.556Z,5.47
2022-11-09T17:40:17.375Z,5.40
2022-11-09T17:43:05.073Z,4.75
2022-11-09T17:45:51.418Z,4.38
2022-11-09T17:48:39.097Z,4.05
2022-11-09T17:51:25.522Z,4.80
2022-11-09T17:54:12.557Z,4.80
2022-11-09T17:57:01.103Z,4.22
2022-11-09T17:59:47.303Z,4.53
2022-11-09T18:02:35.507Z,4.53
2022-11-09T18:05:21.897Z,4.57
2022-11-09T18:08:10.257Z,5.63
2022-11-09T18:11:01.652Z,7.40
2022-11-09T18:13:49.160Z,6.75
2022-11-09T18:16:35.253Z,6.18
2022-11-09T18:19:21.941Z,5.90
2022-11-09T18:22:12.488Z,6.70
2022-11-09T18:24:59.348Z,7.53
2022-11-09T18:27:45.711Z,7.20
2022-11-09T18:30:33.005Z,5.93
2022-11-09T18:33:19.195Z,5.25
2022-11-09T18:36:09.399Z,4.43
2022-11-09T18:38:56.084Z,3.90
2022-11-09T18:41:42.279Z,3.30
2022-11-09T18:44:28.220Z,2.80
2022-11-09T18:47:15.239Z,2.58
2022-11-09T18:50:01.768Z,2.70
2022-11-09T18:52:47.812Z,2.70
2022-11-09T18:55:34.708Z,3.70
2022-11-09T18:58:21.402Z,4.25
2022-11-09T19:01:08.909Z,6.45
2022-11-09T19:03:59.261Z,11.32
2022-11-09T19:06:46.149Z,12.88
2022-11-09T19:09:35.929Z,13.70
2022-11-09T19:12:22.468Z,10.75
2022-11-09T19:15:09.368Z,11.20
2022-11-09T19:17:55.493Z,11.30
2022-11-09T19:20:41.794Z,11.63
2022-11-09T19:23:32.999Z,9.65
2022-11-09T19:26:23.539Z,12.43
2022-11-09T19:29:13.620Z,10.30
2022-11-09T19:31:59.775Z,8.70
2022-11-09T19:34:46.817Z,7.47
2022-11-09T19:37:33.440Z,7.05
2022-11-09T19:40:20.598Z,7.70
2022-11-09T19:43:07.114Z,6.80
2022-11-09T19:45:53.191Z,6.32
2022-11-09T19:48:47.088Z,5.57
2022-11-09T19:51:34.949Z,12.57
2022-11-09T19:54:21.231Z,16.70
2022-11-09T19:57:07.320Z,11.38
2022-11-09T19:59:53.697Z,8.35
2022-11-09T20:02:40.080Z,8.23
2022-11-09T20:05:26.203Z,7.97
2022-11-09T20:08:12.840Z,8.03
2022-11-09T20:11:07.289Z,7.88
2022-11-09T20:13:54.864Z,8.23
2022-11-09T20:16:42.651Z,8.00
2022-11-09T20:19:28.823Z,8.40
2022-11-09T20:22:15.347Z,8.20
2022-11-09T20:25:01.523Z,7.10
2022-11-09T20:27:47.786Z,7.35
2022-11-09T20:30:33.962Z,17.23
2022-11-09T20:33:20.834Z,18.08
2022-11-09T20:36:08.103Z,18.77
2022-11-09T20:38:55.012Z,14.65
2022-11-09T20:41:42.791Z,12.60
2022-11-09T20:44:28.851Z,12.63
2022-11-09T20:47:25.761Z,12.20
2022-11-09T20:50:23.823Z,11.13
2022-11-09T20:53:10.232Z,10.60
2022-11-09T20:55:56.306Z,8.85
2022-11-09T20:58:42.898Z,7.75
2022-11-09T21:01:29.322Z,7.57
2022-11-09T21:04:16.496Z,8.85
2022-11-09T21:07:02.893Z,8.40
2022-11-09T21:09:49.328Z,8.23
2022-11-09T21:12:35.700Z,8.50
2022-11-09T21:15:21.860Z,8.32
2022-11-09T21:18:08.627Z,7.70
2022-11-09T21:20:54.634Z,6.68
2022-11-09T21:24:00.720Z,6.13
2022-11-09T21:27:08.537Z,5.60
2022-11-09T21:29:58.903Z,6.07
2022-11-09T21:32:45.238Z,4.90
2022-11-09T21:35:31.373Z,4.38
2022-11-09T21:38:17.862Z,4.60
2022-11-09T21:41:30.889Z,3.72
2022-11-09T21:44:17.369Z,3.70
2022-11-09T21:47:04.380Z,3.50
2022-11-09T21:49:50.500Z,4.97
2022-11-09T21:52:36.627Z,5.97
2022-11-09T21:55:23.209Z,5.30
2022-11-09T21:58:09.170Z,6.20
2022-11-09T22:01:03.786Z,5.40
2022-11-09T22:03:51.347Z,6.00
2022-11-09T22:06:39.786Z,6.43
2022-11-09T22:09:29.533Z,5.82
2022-11-09T22:12:37.596Z,5.35
2022-11-09T22:15:42.310Z,5.43
2022-11-09T22:18:50.135Z,4.35
2022-11-09T22:21:36.278Z,4.80
2022-11-09T22:24:22.607Z,4.55
2022-11-09T22:27:09.300Z,4.13
2022-11-09T22:29:55.658Z,4.13
2022-11-09T22:32:43.959Z,3.70
2022-11-09T22:35:30.561Z,4.05
2022-11-09T22:38:16.534Z,3.13
2022-11-09T22:41:04.774Z,3.67
2022-11-09T22:43:52.642Z,3.47
2022-11-09T22:46:39.072Z,3.47
2022-11-09T22:49:25.118Z,4.65
2022-11-09T22:52:18.368Z,4.78
2022-11-09T22:55:04.994Z,4.05
2022-11-09T22:57:55.157Z,3.78
2022-11-09T23:00:41.819Z,3.63
2022-11-09T23:03:27.885Z,4.20
2022-11-09T23:06:19.591Z,3.75
2022-11-09T23:09:06.558Z,3.00
2022-11-09T23:11:53.088Z,3.10
2022-11-09T23:14:58.016Z,3.63
2022-11-09T23:18:02.822Z,3.78
2022-11-09T23:20:49.237Z,2.95
2022-11-09T23:23:35.836Z,3.42
2022-11-09T23:26:23.918Z,2.80
2022-11-09T23:29:10.189Z,3.10
2022-11-09T23:31:57.308Z,2.95
2022-11-09T23:34:43.393Z,3.15
2022-11-09T23:37:29.984Z,3.10
2022-11-09T23:40:16.260Z,3.45
2022-11-09T23:43:05.115Z,3.07
2022-11-09T23:45:51.490Z,3.40
2022-11-09T23:48:39.700Z,3.30
2022-11-09T23:51:25.738Z,2.67
2022-11-09T23:54:12.505Z,2.95
2022-11-09T23:56:58.926Z,2.72
2022-11-09T23:59:44.965Z,2.80
